Time;durP1;ratioP1;P1;durP2;ratioP2;P2;SDS_P1;SDS_P2;PMS_P1;PMS_P2;Temp;Humidity;BMP_temperature;BMP_pressure;BME280_temperature;BME280_humidity;BME280_pressure;Samples;Min_cycle;Max_cycle;Signal;HPM_P1;HPM_P2
2022/12/31 00:00:46;;;;;;;2.30;1.40;;;10.50;99.90;;;;;;10461528;28;20033;-61
2022/12/31 00:05:46;;;;;;;3.47;1.40;;;10.50;99.90;;;;;;10460834;28;20017;-61
2022/12/31 00:10:47;;;;;;;2.55;1.38;;;10.50;99.90;;;;;;10460770;28;20033;-61
2022/12/31 00:15:49;;;;;;;6.28;2.53;;;10.50;99.90;;;;;;10460648;28;20096;-63
2022/12/31 00:20:49;;;;;;;3.15;1.60;;;10.60;99.90;;;;;;10461043;28;20037;-61
2022/12/31 00:25:50;;;;;;;3.13;1.60;;;10.50;99.90;;;;;;10460183;28;20036;-61
2022/12/31 00:30:50;;;;;;;3.35;1.48;;;10.50;99.90;;;;;;10461051;28;20515;-61
2022/12/31 00:35:51;;;;;;;3.28;2.00;;;10.50;99.90;;;;;;10460342;28;20551;-61
2022/12/31 00:40:52;;;;;;;4.00;1.50;;;10.50;99.90;;;;;;10460023;28;20226;-61
2022/12/31 00:45:53;;;;;;;3.88;1.70;;;10.50;99.90;;;;;;10459839;28;20112;-61
2022/12/31 00:50:55;;;;;;;2.95;1.80;;;10.50;99.90;;;;;;10459540;28;20116;-61
2022/12/31 00:56:00;;;;;;;3.55;1.55;;;10.50;99.90;;;;;;10459340;28;20048;-61
2022/12/31 01:01:13;;;;;;;2.67;1.50;;;10.60;99.90;;;;;;10459583;28;20353;-61
2022/12/31 01:06:14;;;;;;;2.67;1.58;;;10.60;99.90;;;;;;10458239;28;20408;-61
2022/12/31 01:11:18;;;;;;;2.03;1.30;;;10.60;99.90;;;;;;10459258;28;20033;-61
2022/12/31 01:16:25;;;;;;;2.63;1.52;;;10.60;99.90;;;;;;10457541;28;20074;-61
2022/12/31 01:21:27;;;;;;;2.45;1.40;;;10.60;99.90;;;;;;10458505;28;20088;-61
2022/12/31 01:26:28;;;;;;;3.00;1.40;;;10.60;99.90;;;;;;10458339;28;20078;-61
2022/12/31 01:31:29;;;;;;;2.78;1.38;;;10.60;99.90;;;;;;10458736;28;20039;-61
2022/12/31 01:36:31;;;;;;;1.42;1.10;;;10.30;99.90;;;;;;10458104;28;20358;-61
2022/12/31 01:41:38;;;;;;;1.92;1.23;;;10.60;99.90;;;;;;10457957;28;20036;-61
2022/12/31 01:46:42;;;;;;;2.72;1.48;;;10.60;99.90;;;;;;10457651;28;20373;-61
2022/12/31 01:51:45;;;;;;;2.10;1.10;;;10.60;99.90;;;;;;10457066;28;20418;-61
2022/12/31 01:56:49;;;;;;;2.88;1.27;;;10.60;99.90;;;;;;10457151;28;20071;-61
2022/12/31 02:01:53;;;;;;;1.67;1.10;;;10.60;99.90;;;;;;10457041;28;20086;-61
2022/12/31 02:07:07;;;;;;;2.03;1.27;;;10.60;99.90;;;;;;10457082;28;20096;-60
2022/12/31 02:12:09;;;;;;;1.95;1.23;;;10.60;99.90;;;;;;10456776;28;20033;-61
2022/12/31 02:17:36;;;;;;;2.03;0.95;;;10.60;99.90;;;;;;10471394;28;20473;-61
2022/12/31 02:22:59;;;;;;;1.35;1.00;;;10.60;99.90;;;;;;10456416;28;20033;-61
2022/12/31 02:28:37;;;;;;;1.95;1.17;;;10.60;99.90;;;;;;10456130;28;20033;-61
2022/12/31 02:33:55;;;;;;;1.43;1.33;;;10.60;99.90;;;;;;10455282;28;20540;-61
2022/12/31 02:38:57;;;;;;;2.13;1.00;;;10.60;99.90;;;;;;10455819;28;20098;-61
2022/12/31 02:43:57;;;;;;;2.17;0.98;;;10.60;99.90;;;;;;10455495;28;20021;-61
2022/12/31 02:49:09;;;;;;;1.13;0.90;;;10.60;99.90;;;;;;10455278;28;20377;-61
2022/12/31 02:54:22;;;;;;;1.40;0.95;;;10.60;99.90;;;;;;10454842;28;20129;-61
2022/12/31 03:04:52;;;;;;;;;;;10.60;99.90;;;;;;10454161;28;20099;-61
2022/12/31 03:09:53;;;;;;;0.88;0.68;;;10.60;99.90;;;;;;10453634;28;19912;-61
2022/12/31 03:14:54;;;;;;;1.35;0.98;;;10.60;99.90;;;;;;10452363;28;20033;-61
2022/12/31 03:25:32;;;;;;;2.08;0.95;;;10.60;99.90;;;;;;10453611;28;20020;-61
2022/12/31 03:30:34;;;;;;;1.35;0.95;;;10.60;99.90;;;;;;10452426;28;20036;-61
2022/12/31 03:35:37;;;;;;;2.22;1.10;;;10.60;99.90;;;;;;10453441;28;20401;-60
2022/12/31 03:40:40;;;;;;;1.90;0.80;;;10.60;99.90;;;;;;10453613;28;20021;-60
2022/12/31 03:45:41;;;;;;;2.55;1.10;;;10.60;99.90;;;;;;10453317;28;20028;-61
2022/12/31 03:50:42;;;;;;;1.35;0.90;;;10.60;99.90;;;;;;10452879;28;20036;-61
2022/12/31 03:55:43;;;;;;;1.40;1.00;;;10.60;99.90;;;;;;10453472;28;20040;-60
2022/12/31 04:00:44;;;;;;;1.70;1.00;;;10.60;99.90;;;;;;10453306;28;20032;-60
2022/12/31 04:05:51;;;;;;;0.90;0.80;;;10.70;99.90;;;;;;10452854;28;20060;-60
2022/12/31 04:10:52;;;;;;;1.15;0.80;;;10.70;99.90;;;;;;10453064;28;20045;-60
2022/12/31 04:15:52;;;;;;;2.08;0.80;;;10.70;99.90;;;;;;10453049;28;20043;-61
2022/12/31 04:20:53;;;;;;;1.50;1.00;;;10.60;99.90;;;;;;10452481;28;20029;-60
2022/12/31 04:25:54;;;;;;;1.65;0.85;;;10.70;99.90;;;;;;10452192;28;20450;-61
2022/12/31 04:30:54;;;;;;;1.27;0.90;;;10.70;99.90;;;;;;10452503;28;20453;-60
2022/12/31 04:36:04;;;;;;;1.90;0.90;;;10.70;99.90;;;;;;10452049;28;20017;-60
2022/12/31 04:41:17;;;;;;;1.15;0.93;;;10.70;99.90;;;;;;10455229;28;20039;-60
2022/12/31 04:46:24;;;;;;;1.88;0.80;;;10.70;99.90;;;;;;10459300;28;20063;-60
2022/12/31 04:51:26;;;;;;;2.05;1.20;;;10.70;99.90;;;;;;10459227;28;20060;-61
2022/12/31 04:56:27;;;;;;;2.65;0.95;;;10.70;99.90;;;;;;10459042;28;20343;-61
2022/12/31 05:01:28;;;;;;;2.20;1.02;;;10.70;99.90;;;;;;10457521;28;20087;-60
2022/12/31 05:06:29;;;;;;;2.70;0.80;;;10.70;99.90;;;;;;10458926;28;20056;-60
2022/12/31 05:11:29;;;;;;;2.08;0.73;;;10.70;99.90;;;;;;10458367;28;20056;-60
2022/12/31 05:16:30;;;;;;;2.50;0.77;;;10.70;99.90;;;;;;10458334;28;20025;-60
2022/12/31 05:21:30;;;;;;;1.55;0.80;;;10.70;99.90;;;;;;10458151;28;20079;-60
2022/12/31 05:26:31;;;;;;;1.00;0.80;;;10.70;99.90;;;;;;10456809;28;20120;-60
2022/12/31 05:31:31;;;;;;;1.35;0.80;;;10.70;99.90;;;;;;10457429;28;20112;-60
2022/12/31 05:36:32;;;;;;;2.22;1.40;;;10.70;99.90;;;;;;10457274;28;20032;-60
2022/12/31 05:41:33;;;;;;;1.17;0.77;;;10.70;99.90;;;;;;10457323;28;20100;-60
2022/12/31 05:46:33;;;;;;;2.90;0.90;;;10.70;99.90;;;;;;10456868;28;20461;-60
2022/12/31 05:51:34;;;;;;;1.63;0.85;;;10.70;99.90;;;;;;10456121;28;20137;-60
2022/12/31 05:56:34;;;;;;;1.50;0.93;;;10.70;99.90;;;;;;10456675;28;20025;-60
2022/12/31 06:01:35;;;;;;;2.40;0.93;;;10.70;99.90;;;;;;10456588;28;20025;-60
2022/12/31 06:06:35;;;;;;;1.08;0.60;;;10.70;99.90;;;;;;10456295;28;20091;-60
2022/12/31 06:11:36;;;;;;;0.82;0.80;;;10.70;99.90;;;;;;10455833;28;20025;-61
2022/12/31 06:16:38;;;;;;;2.08;0.95;;;10.70;99.90;;;;;;10455931;28;20033;-61
2022/12/31 06:21:39;;;;;;;2.17;0.80;;;10.70;99.90;;;;;;10455916;28;20028;-60
2022/12/31 06:26:40;;;;;;;2.97;1.05;;;10.70;99.90;;;;;;10455521;28;20071;-60
2022/12/31 06:31:40;;;;;;;1.35;0.70;;;10.80;99.90;;;;;;10455029;28;20427;-60
2022/12/31 06:36:41;;;;;;;1.42;1.02;;;10.70;99.90;;;;;;10454897;28;20036;-60
2022/12/31 06:41:41;;;;;;;1.52;0.70;;;10.70;99.90;;;;;;10454978;28;20423;-60
2022/12/31 06:46:42;;;;;;;0.90;0.73;;;10.70;99.90;;;;;;10454855;28;20466;-60
2022/12/31 06:51:44;;;;;;;1.00;0.75;;;10.70;99.90;;;;;;10454766;28;20044;-60
2022/12/31 06:56:45;;;;;;;0.98;0.70;;;10.70;99.90;;;;;;10454707;28;20362;-60
2022/12/31 07:02:21;;;;;;;1.40;0.90;;;10.70;99.90;;;;;;10453866;28;20036;-61
2022/12/31 07:07:43;;;;;;;3.42;0.90;;;10.70;99.90;;;;;;10410470;28;20033;-61
2022/12/31 07:12:51;;;;;;;1.90;0.70;;;10.70;99.90;;;;;;10453636;28;20537;-61
2022/12/31 07:18:09;;;;;;;1.38;0.90;;;10.70;99.90;;;;;;10454008;28;20090;-61
2022/12/31 07:23:09;;;;;;;2.05;0.57;;;10.70;99.90;;;;;;10453777;28;20032;-61
2022/12/31 07:28:31;;;;;;;1.55;0.80;;;10.70;99.90;;;;;;10453606;28;20115;-61
2022/12/31 07:33:44;;;;;;;1.92;0.80;;;10.70;99.90;;;;;;10453722;28;20090;-61
2022/12/31 07:38:57;;;;;;;0.90;0.88;;;10.70;99.90;;;;;;10453441;28;20036;-61
2022/12/31 07:44:37;;;;;;;1.15;0.82;;;10.70;99.90;;;;;;10453088;28;20025;-61
2022/12/31 07:49:41;;;;;;;0.85;0.60;;;10.70;99.90;;;;;;10412881;28;20129;-61
2022/12/31 07:54:41;;;;;;;0.70;0.70;;;10.70;99.90;;;;;;10452842;28;20033;-61
2022/12/31 08:00:01;;;;;;;1.13;0.77;;;10.80;99.90;;;;;;10452790;28;20028;-61
2022/12/31 08:05:28;;;;;;;3.05;0.80;;;10.80;99.90;;;;;;10452531;28;20028;-62
2022/12/31 08:10:45;;;;;;;1.05;0.75;;;10.80;99.90;;;;;;10452134;28;20098;-61
2022/12/31 08:15:46;;;;;;;1.40;0.55;;;10.80;99.90;;;;;;10470103;28;20025;-62
2022/12/31 08:21:14;;;;;;;1.10;0.50;;;10.80;99.90;;;;;;10460658;28;20055;-61
2022/12/31 08:26:25;;;;;;;1.08;0.70;;;10.80;99.90;;;;;;10460414;28;20473;-61
2022/12/31 08:31:47;;;;;;;1.08;0.80;;;10.80;99.90;;;;;;10459810;28;20040;-61
2022/12/31 08:37:04;;;;;;;1.30;0.70;;;10.90;99.90;;;;;;10459940;28;20499;-62
2022/12/31 08:42:29;;;;;;;1.45;0.70;;;10.90;99.90;;;;;;10459744;28;20051;-61
2022/12/31 08:47:50;;;;;;;0.90;0.63;;;10.90;99.90;;;;;;10458114;28;20476;-61
2022/12/31 08:52:51;;;;;;;1.13;0.70;;;10.90;99.90;;;;;;10418173;28;20045;-61
2022/12/31 08:58:03;;;;;;;0.90;0.70;;;10.90;99.90;;;;;;10459096;28;20037;-62
2022/12/31 09:03:36;;;;;;;1.20;0.70;;;10.90;99.90;;;;;;10459157;28;20025;-61
2022/12/31 09:08:51;;;;;;;0.63;0.60;;;10.90;99.90;;;;;;10414976;28;20076;-61
2022/12/31 09:13:55;;;;;;;2.28;0.60;;;11.00;99.90;;;;;;10459497;28;20047;-61
2022/12/31 09:18:55;;;;;;;1.38;0.80;;;11.00;99.90;;;;;;10459014;28;20021;-61
2022/12/31 09:23:56;;;;;;;0.77;0.60;;;11.00;99.90;;;;;;10459115;28;20530;-61
2022/12/31 09:29:12;;;;;;;1.63;0.70;;;11.10;99.90;;;;;;10457587;28;20029;-62
2022/12/31 09:34:42;;;;;;;0.88;0.70;;;11.10;99.90;;;;;;10458227;28;20033;-62
2022/12/31 09:39:45;;;;;;;0.70;0.50;;;11.10;99.90;;;;;;10458003;28;20087;-61
2022/12/31 09:45:13;;;;;;;0.90;0.60;;;11.10;99.90;;;;;;10458365;28;20029;-61
2022/12/31 09:50:51;;;;;;;0.90;0.50;;;11.10;99.90;;;;;;10457247;28;20505;-61
2022/12/31 09:55:55;;;;;;;1.27;0.70;;;11.20;99.90;;;;;;10457112;28;20032;-61
2022/12/31 10:01:33;;;;;;;1.17;0.52;;;11.20;99.90;;;;;;10457038;28;20384;-61
2022/12/31 10:07:17;;;;;;;0.45;0.40;;;11.20;99.90;;;;;;10457266;28;20380;-61
2022/12/31 10:12:42;;;;;;;1.65;0.50;;;11.20;99.90;;;;;;10457552;28;20611;-60
2022/12/31 10:17:56;;;;;;;0.40;0.40;;;11.30;99.90;;;;;;10456822;28;20029;-62
2022/12/31 10:23:28;;;;;;;0.57;0.50;;;11.30;99.90;;;;;;10456789;28;20435;-61
2022/12/31 10:28:34;;;;;;;1.02;0.50;;;11.30;99.90;;;;;;10456413;28;20025;-60
2022/12/31 10:34:21;;;;;;;0.82;0.50;;;11.30;99.90;;;;;;10456464;28;20037;-61
2022/12/31 10:39:21;;;;;;;1.40;0.60;;;11.30;99.90;;;;;;10406218;28;20129;-73
2022/12/31 10:45:03;;;;;;;1.33;0.65;;;11.50;99.90;;;;;;10456049;28;20036;-73
2022/12/31 10:50:22;;;;;;;1.98;0.50;;;11.40;99.90;;;;;;10360383;28;20428;-73
2022/12/31 10:55:53;;;;;;;2.17;0.85;;;12.00;99.90;;;;;;10455545;28;20048;-73
2022/12/31 11:01:17;;;;;;;0.95;0.60;;;11.40;99.90;;;;;;10455211;28;20025;-75
2022/12/31 11:06:55;;;;;;;1.00;0.60;;;11.50;99.90;;;;;;10454676;28;20020;-74
2022/12/31 11:12:23;;;;;;;1.58;0.70;;;11.50;99.90;;;;;;10454982;28;20044;-73
2022/12/31 11:17:23;;;;;;;4.75;0.80;;;11.50;99.90;;;;;;10454531;28;20365;-68
2022/12/31 11:23:13;;;;;;;1.23;0.60;;;11.50;99.90;;;;;;10454646;28;20028;-71
2022/12/31 11:28:21;;;;;;;1.58;0.68;;;11.60;99.90;;;;;;10363899;28;20122;-69
2022/12/31 11:33:43;;;;;;;1.35;0.75;;;12.00;99.90;;;;;;10454275;28;20534;-70
2022/12/31 11:39:07;;;;;;;1.55;0.55;;;11.60;99.90;;;;;;10454762;28;20358;-69
2022/12/31 11:44:45;;;;;;;3.40;0.77;;;11.70;99.90;;;;;;10454450;28;20082;-69
2022/12/31 11:49:56;;;;;;;;;;;11.70;99.90;;;;;;10454586;28;20496;-70
2022/12/31 11:55:04;;;;;;;3.92;0.85;;;11.70;99.90;;;;;;10462852;28;19912;-73
2022/12/31 12:00:08;;;;;;;1.43;1.10;;;11.70;99.90;;;;;;10462740;28;20021;-74
2022/12/31 12:05:13;;;;;;;2.45;1.00;;;11.80;99.90;;;;;;10461993;28;20247;-73
2022/12/31 12:10:45;;;;;;;1.60;0.73;;;11.80;99.90;;;;;;10461776;28;20060;-74
2022/12/31 12:15:53;;;;;;;2.03;1.08;;;11.70;99.90;;;;;;10461084;28;20087;-74
2022/12/31 12:21:12;;;;;;;1.20;0.98;;;11.80;99.90;;;;;;10461411;28;20029;-74
2022/12/31 12:26:32;;;;;;;;;;;11.80;99.90;;;;;;10461532;28;20025;-75
2022/12/31 12:31:33;;;;;;;3.25;1.10;;;11.80;99.90;;;;;;10460900;28;19916;-74
2022/12/31 12:36:33;;;;;;;2.25;1.00;;;12.70;99.90;;;;;;10461504;28;20017;-69
2022/12/31 12:41:34;;;;;;;10.98;1.42;;;11.80;99.90;;;;;;10460305;28;20529;-68
2022/12/31 12:46:42;;;;;;;2.80;1.00;;;11.90;99.90;;;;;;10460272;28;20021;-68
2022/12/31 12:51:48;;;;;;;1.97;1.07;;;12.00;99.90;;;;;;10460101;28;20044;-72
2022/12/31 12:57:27;;;;;;;5.90;1.10;;;12.00;99.90;;;;;;10460087;28;20477;-71
2022/12/31 13:02:48;;;;;;;7.43;1.30;;;12.00;99.90;;;;;;10419281;28;20044;-75
2022/12/31 13:08:28;;;;;;;1.63;1.20;;;11.90;99.90;;;;;;10459755;28;20029;-73
2022/12/31 13:13:50;;;;;;;2.42;1.13;;;11.90;99.90;;;;;;10428975;28;20045;-73
2022/12/31 13:18:57;;;;;;;2.63;1.05;;;11.90;99.90;;;;;;10459732;28;20025;-75
2022/12/31 13:24:11;;;;;;;2.58;1.50;;;11.90;99.90;;;;;;10459187;28;20033;-74
2022/12/31 13:29:17;;;;;;;3.35;1.20;;;11.90;99.90;;;;;;10458572;28;20025;-74
2022/12/31 13:34:21;;;;;;;1.67;1.38;;;11.90;99.90;;;;;;10458527;28;20040;-73
2022/12/31 13:45:19;;;;;;;3.42;1.40;;;11.90;99.90;;;;;;10458052;28;20051;-68
2022/12/31 13:50:46;;;;;;;5.67;1.57;;;11.90;99.90;;;;;;10457605;28;20035;-73
2022/12/31 13:56:08;;;;;;;1.73;1.10;;;12.00;99.90;;;;;;10426843;28;20404;-73
2022/12/31 14:01:37;;;;;;;2.42;1.35;;;11.90;99.90;;;;;;10457512;28;20489;-73
2022/12/31 14:06:54;;;;;;;3.08;1.30;;;11.90;99.90;;;;;;10457192;28;20027;-72
2022/12/31 14:12:21;;;;;;;2.17;1.20;;;11.90;99.90;;;;;;10456876;28;20037;-73
2022/12/31 14:17:35;;;;;;;1.98;1.17;;;11.90;99.90;;;;;;10455395;28;20037;-73
2022/12/31 14:29:10;;;;;;;1.17;1.08;;;11.90;99.90;;;;;;10673512;22;20492;-67
2022/12/31 14:35:04;;;;;;;2.80;1.45;;;12.00;99.90;;;;;;10446036;28;20108;-67
2022/12/31 14:40:15;;;;;;;4.85;1.58;;;12.00;99.90;;;;;;10402854;28;20037;-69
2022/12/31 14:45:34;;;;;;;3.63;1.67;;;12.00;99.90;;;;;;10437088;28;20029;-68
2022/12/31 14:50:36;;;;;;;3.83;1.92;;;12.00;99.90;;;;;;10432178;28;20454;-66
2022/12/31 14:55:39;;;;;;;4.05;1.73;;;12.00;99.90;;;;;;10436836;28;20020;-67
2022/12/31 15:00:52;;;;;;;3.85;1.98;;;12.00;99.90;;;;;;10453337;22;20059;-66
2022/12/31 15:06:13;;;;;;;2.85;1.92;;;12.00;99.90;;;;;;10432197;28;20032;-66
2022/12/31 15:11:38;;;;;;;2.65;1.63;;;12.00;99.90;;;;;;10430072;28;20112;-67
2022/12/31 15:17:13;;;;;;;2.78;1.80;;;12.10;99.90;;;;;;10387100;28;20108;-68
2022/12/31 15:22:42;;;;;;;4.03;1.73;;;12.10;99.90;;;;;;10389778;28;20471;-66
2022/12/31 15:27:45;;;;;;;4.03;2.50;;;12.20;99.90;;;;;;10381586;28;20021;-66
2022/12/31 15:32:46;;;;;;;5.15;2.08;;;12.30;99.90;;;;;;10376197;28;20030;-70
2022/12/31 15:38:27;;;;;;;5.30;2.38;;;12.70;99.90;;;;;;10394466;28;20036;-69
2022/12/31 15:43:51;;;;;;;5.40;2.25;;;12.40;99.90;;;;;;10378177;28;20111;-66
2022/12/31 15:49:02;;;;;;;8.32;2.45;;;12.40;99.90;;;;;;10386838;28;20029;-67
2022/12/31 15:54:05;;;;;;;5.57;2.40;;;12.30;99.90;;;;;;10388587;28;20436;-67
2022/12/31 15:59:12;;;;;;;4.20;2.30;;;12.30;99.90;;;;;;10382303;28;20487;-67
2022/12/31 16:04:25;;;;;;;3.53;2.33;;;12.30;99.90;;;;;;10387895;28;20067;-68
2022/12/31 16:09:34;;;;;;;6.22;2.10;;;12.30;99.90;;;;;;10390391;28;21802;-68
2022/12/31 16:14:41;;;;;;;3.00;2.17;;;12.30;99.90;;;;;;10379971;28;20072;-68
2022/12/31 16:19:43;;;;;;;5.20;2.40;;;12.20;99.90;;;;;;10388519;28;20469;-68
2022/12/31 16:24:43;;;;;;;2.90;1.90;;;12.20;99.90;;;;;;10380957;28;20116;-68
2022/12/31 16:29:56;;;;;;;4.40;2.17;;;12.20;99.90;;;;;;10383056;28;20502;-67
2022/12/31 16:34:57;;;;;;;2.75;2.00;;;12.20;99.90;;;;;;10373757;28;20071;-67
2022/12/31 16:39:57;;;;;;;3.75;2.00;;;12.20;99.90;;;;;;10373995;28;20028;-67
2022/12/31 16:45:17;;;;;;;4.50;2.42;;;12.20;99.90;;;;;;10389950;28;20022;-68
2022/12/31 16:50:21;;;;;;;7.53;3.72;;;12.20;99.90;;;;;;10381455;28;20018;-70
2022/12/31 16:55:25;;;;;;;11.40;5.55;;;12.20;99.90;;;;;;10384628;28;20036;-69
2022/12/31 17:00:26;;;;;;;10.80;6.35;;;12.20;99.90;;;;;;10385485;28;20022;-70
2022/12/31 17:05:27;;;;;;;13.68;6.80;;;12.20;99.90;;;;;;10390235;28;20033;-70
2022/12/31 17:10:37;;;;;;;13.23;6.70;;;12.30;99.90;;;;;;10381634;28;20033;-68
2022/12/31 17:15:41;;;;;;;12.70;6.18;;;12.40;99.90;;;;;;10391618;28;20064;-68
2022/12/31 17:20:41;;;;;;;11.13;5.70;;;12.40;99.90;;;;;;10391062;28;20035;-68
2022/12/31 17:25:42;;;;;;;15.70;7.05;;;12.30;99.90;;;;;;10379851;28;20033;-67
2022/12/31 17:30:43;;;;;;;11.95;5.93;;;12.30;99.90;;;;;;10384274;28;20144;-67
2022/12/31 17:35:44;;;;;;;16.83;6.90;;;12.30;99.90;;;;;;10380026;28;20033;-67
2022/12/31 17:40:47;;;;;;;10.18;5.68;;;12.30;99.90;;;;;;10378690;28;20112;-67
2022/12/31 17:45:51;;;;;;;13.18;6.25;;;12.30;99.90;;;;;;10378981;28;20123;-67
2022/12/31 17:50:53;;;;;;;12.30;6.32;;;12.30;99.90;;;;;;10388063;28;20034;-67
2022/12/31 17:55:59;;;;;;;13.40;6.15;;;12.40;99.90;;;;;;10387952;28;20032;-66
2022/12/31 18:01:01;;;;;;;10.15;6.07;;;12.50;99.90;;;;;;10388708;28;20040;-66
2022/12/31 18:06:04;;;;;;;10.90;5.80;;;12.40;99.90;;;;;;10384137;28;20487;-67
2022/12/31 18:11:05;;;;;;;12.15;5.97;;;12.40;99.90;;;;;;10380703;28;20026;-67
2022/12/31 18:16:06;;;;;;;14.25;6.05;;;12.40;99.90;;;;;;10383748;28;20026;-66
2022/12/31 18:21:15;;;;;;;12.32;6.25;;;12.40;99.90;;;;;;10392572;28;20024;-67
2022/12/31 18:26:17;;;;;;;;;;;12.40;99.90;;;;;;10382700;28;20026;-66
2022/12/31 18:31:18;;;;;;;12.02;5.93;;;12.40;99.90;;;;;;10381432;28;20268;-67
2022/12/31 18:36:20;;;;;;;11.18;5.38;;;12.60;99.90;;;;;;10384005;28;20449;-66
2022/12/31 18:41:25;;;;;;;12.02;5.78;;;12.40;99.90;;;;;;10379890;28;20036;-66
2022/12/31 18:46:26;;;;;;;11.55;5.72;;;12.40;99.90;;;;;;10375122;28;20504;-67
2022/12/31 18:51:27;;;;;;;11.32;6.00;;;12.60;99.90;;;;;;10379255;28;20040;-65
2022/12/31 18:56:28;;;;;;;11.77;5.80;;;12.60;99.90;;;;;;10385998;28;20504;-66
2022/12/31 19:01:32;;;;;;;12.32;5.53;;;12.50;99.90;;;;;;10385071;28;20329;-67
2022/12/31 19:06:32;;;;;;;10.10;5.80;;;12.40;99.90;;;;;;10373981;28;20026;-66
2022/12/31 19:11:34;;;;;;;13.52;5.97;;;12.50;99.90;;;;;;10385429;28;20025;-66
2022/12/31 19:16:35;;;;;;;12.65;7.28;;;12.40;99.90;;;;;;10376905;28;20022;-66
2022/12/31 19:21:35;;;;;;;19.48;9.63;;;12.40;99.90;;;;;;10380537;28;20079;-66
2022/12/31 19:26:36;;;;;;;11.43;7.05;;;12.40;99.90;;;;;;10376679;28;20052;-66
2022/12/31 19:31:37;;;;;;;12.20;7.18;;;12.40;99.90;;;;;;10380528;28;20034;-66
2022/12/31 19:36:38;;;;;;;18.33;7.45;;;12.40;99.90;;;;;;10382881;28;20018;-66
2022/12/31 19:41:41;;;;;;;10.88;6.47;;;12.50;99.90;;;;;;10388231;28;20026;-67
2022/12/31 19:46:43;;;;;;;14.65;7.00;;;12.80;99.90;;;;;;10385310;28;20113;-66
2022/12/31 19:51:44;;;;;;;16.30;7.53;;;12.50;99.90;;;;;;10383540;28;20105;-66
2022/12/31 19:56:44;;;;;;;14.23;7.47;;;12.50;99.90;;;;;;10392229;28;20029;-67
2022/12/31 20:01:45;;;;;;;14.02;6.45;;;12.50;99.90;;;;;;10374771;28;20034;-66
2022/12/31 20:06:45;;;;;;;11.68;6.65;;;12.50;99.90;;;;;;10379615;28;20487;-66
2022/12/31 20:11:46;;;;;;;13.82;6.45;;;12.50;99.90;;;;;;10383045;28;20033;-66
2022/12/31 20:16:46;;;;;;;9.30;5.63;;;12.50;99.90;;;;;;10379712;28;20415;-66
2022/12/31 20:21:47;;;;;;;18.45;7.47;;;12.50;99.90;;;;;;10380632;28;20151;-66
2022/12/31 20:26:48;;;;;;;12.75;6.32;;;12.50;99.90;;;;;;10382570;28;20026;-66
2022/12/31 20:31:48;;;;;;;10.45;5.38;;;12.50;99.90;;;;;;10381959;28;20156;-66
2022/12/31 20:36:49;;;;;;;13.60;6.80;;;12.60;99.90;;;;;;10384472;28;20017;-66
2022/12/31 20:41:49;;;;;;;12.77;6.20;;;12.50;99.90;;;;;;10382648;28;20021;-66
2022/12/31 20:46:50;;;;;;;11.98;6.30;;;12.50;99.90;;;;;;10385285;28;20484;-66
2022/12/31 20:51:51;;;;;;;14.48;6.03;;;13.00;99.90;;;;;;10385103;28;20018;-66
2022/12/31 20:56:51;;;;;;;14.43;5.75;;;12.50;99.90;;;;;;10389296;28;20028;-67
2022/12/31 21:01:52;;;;;;;13.43;5.75;;;12.50;99.90;;;;;;10404224;22;20114;-72
2022/12/31 21:07:00;;;;;;;11.35;5.25;;;12.50;99.90;;;;;;10433437;28;20115;-72
2022/12/31 21:17:19;;;;;;;11.65;6.25;;;13.00;99.90;;;;;;10430709;28;20492;-70
2022/12/31 21:22:21;;;;;;;11.13;5.38;;;12.50;99.90;;;;;;10433581;28;20064;-72
2022/12/31 21:27:22;;;;;;;10.18;5.18;;;12.50;99.90;;;;;;10439644;28;21303;-73
2022/12/31 21:32:23;;;;;;;12.23;5.47;;;12.50;99.90;;;;;;10437086;28;20025;-72
2022/12/31 21:37:25;;;;;;;12.18;5.63;;;12.50;99.90;;;;;;10443604;28;20554;-72
2022/12/31 21:42:25;;;;;;;9.90;5.03;;;12.50;99.90;;;;;;10431490;28;20021;-72
2022/12/31 21:52:45;;;;;;;10.85;5.22;;;12.60;99.90;;;;;;10432691;28;20069;-71
2022/12/31 21:57:48;;;;;;;10.50;5.38;;;12.60;99.90;;;;;;10435608;28;20504;-73
2022/12/31 22:08:08;;;;;;;13.73;5.07;;;12.50;99.90;;;;;;10547869;22;20501;-73
2022/12/31 22:13:09;;;;;;;14.27;5.88;;;12.50;99.90;;;;;;10479952;28;20032;-74
2022/12/31 22:18:10;;;;;;;11.77;5.10;;;12.60;99.90;;;;;;10471003;28;20027;-71
2022/12/31 22:23:11;;;;;;;11.43;5.25;;;12.60;99.90;;;;;;10478707;28;20028;-72
2022/12/31 22:28:11;;;;;;;8.93;5.38;;;12.60;99.90;;;;;;10471399;28;20536;-72
2022/12/31 22:33:12;;;;;;;8.10;4.57;;;12.50;99.90;;;;;;10476011;28;20044;-73
2022/12/31 22:38:12;;;;;;;13.18;5.47;;;12.50;99.90;;;;;;10469622;28;20017;-72
2022/12/31 22:43:13;;;;;;;9.43;5.28;;;12.70;99.90;;;;;;10475740;28;20118;-72
2022/12/31 22:48:14;;;;;;;9.95;5.15;;;12.50;99.90;;;;;;10477871;28;20023;-73
2022/12/31 22:53:14;;;;;;;9.45;4.78;;;12.60;99.90;;;;;;10470178;28;20033;-73
2022/12/31 22:58:18;;;;;;;11.95;5.80;;;12.60;99.90;;;;;;10467607;28;20023;-74
2022/12/31 23:03:19;;;;;;;9.27;5.10;;;12.60;99.90;;;;;;10477620;28;20048;-73
2022/12/31 23:08:20;;;;;;;12.55;4.85;;;12.60;99.90;;;;;;10462417;28;20467;-74
2022/12/31 23:24:03;;;;;;;13.25;6.30;;;12.40;99.90;;;;;;10462821;28;20060;-73
2022/12/31 23:29:03;;;;;;;14.82;6.88;;;12.60;99.90;;;;;;10466978;28;20085;-72
2022/12/31 23:34:04;;;;;;;17.17;6.65;;;12.60;99.90;;;;;;10469162;28;20032;-73
2022/12/31 23:39:05;;;;;;;17.10;6.97;;;13.20;99.90;;;;;;10471459;28;20080;-73
2022/12/31 23:44:06;;;;;;;13.15;7.00;;;12.60;99.90;;;;;;10468723;28;20028;-74
2022/12/31 23:49:06;;;;;;;17.95;9.48;;;12.60;99.90;;;;;;10459415;28;20470;-72
2022/12/31 23:54:07;;;;;;;16.15;9.05;;;12.60;99.90;;;;;;10464925;28;20043;-72
2022/12/31 23:59:09;;;;;;;22.85;10.48;;;12.60;99.90;;;;;;10462669;28;20021;-72
